sensor_id;sensor_type;location;lat;lon;timestamp;P1;durP1;ratioP1;P2;durP2;ratioP2
27979;SDS011;15315;50.836;4.430;2022-09-25T00:00:10;19.08;;;3.58;;
27979;SDS011;15315;50.836;4.430;2022-09-25T00:10:10;8.75;;;2.63;;
27979;SDS011;15315;50.836;4.430;2022-09-25T00:20:11;12.45;;;2.53;;
27979;SDS011;15315;50.836;4.430;2022-09-25T00:30:12;9.85;;;2.72;;
27979;SDS011;15315;50.836;4.430;2022-09-25T00:40:13;10.07;;;2.42;;
27979;SDS011;15315;50.836;4.430;2022-09-25T01:00:14;10.68;;;3.00;;
27979;SDS011;15315;50.836;4.430;2022-09-25T01:10:15;13.63;;;2.80;;
27979;SDS011;15315;50.836;4.430;2022-09-25T01:30:36;10.93;;;2.75;;
27979;SDS011;15315;50.836;4.430;2022-09-25T01:40:48;12.73;;;2.50;;
27979;SDS011;15315;50.836;4.430;2022-09-25T01:50:51;19.25;;;3.10;;
27979;SDS011;15315;50.836;4.430;2022-09-25T02:00:55;20.02;;;3.08;;
27979;SDS011;15315;50.836;4.430;2022-09-25T02:11:02;10.35;;;2.33;;
27979;SDS011;15315;50.836;4.430;2022-09-25T02:21:13;12.40;;;2.33;;
27979;SDS011;15315;50.836;4.430;2022-09-25T02:31:16;12.05;;;2.22;;
27979;SDS011;15315;50.836;4.430;2022-09-25T02:51:31;10.07;;;2.42;;
27979;SDS011;15315;50.836;4.430;2022-09-25T03:01:35;11.43;;;2.53;;
27979;SDS011;15315;50.836;4.430;2022-09-25T03:11:36;12.20;;;2.33;;
27979;SDS011;15315;50.836;4.430;2022-09-25T03:21:41;12.80;;;3.03;;
27979;SDS011;15315;50.836;4.430;2022-09-25T03:31:42;13.50;;;2.40;;
27979;SDS011;15315;50.836;4.430;2022-09-25T03:41:42;13.77;;;3.17;;
27979;SDS011;15315;50.836;4.430;2022-09-25T03:51:43;18.30;;;3.60;;
27979;SDS011;15315;50.836;4.430;2022-09-25T04:01:43;11.65;;;3.65;;
27979;SDS011;15315;50.836;4.430;2022-09-25T04:11:46;15.88;;;3.80;;
27979;SDS011;15315;50.836;4.430;2022-09-25T04:21:46;11.32;;;3.75;;
27979;SDS011;15315;50.836;4.430;2022-09-25T04:31:46;11.80;;;4.28;;
27979;SDS011;15315;50.836;4.430;2022-09-25T04:42:07;18.45;;;5.00;;
27979;SDS011;15315;50.836;4.430;2022-09-25T04:52:07;15.13;;;4.68;;
27979;SDS011;15315;50.836;4.430;2022-09-25T05:02:07;22.30;;;4.60;;
27979;SDS011;15315;50.836;4.430;2022-09-25T05:12:07;22.15;;;6.53;;
27979;SDS011;15315;50.836;4.430;2022-09-25T05:22:08;14.40;;;4.85;;
27979;SDS011;15315;50.836;4.430;2022-09-25T05:32:08;15.90;;;4.60;;
27979;SDS011;15315;50.836;4.430;2022-09-25T05:42:08;12.38;;;4.60;;
27979;SDS011;15315;50.836;4.430;2022-09-25T05:52:08;10.52;;;5.00;;
27979;SDS011;15315;50.836;4.430;2022-09-25T06:02:11;18.50;;;4.93;;
27979;SDS011;15315;50.836;4.430;2022-09-25T06:12:12;13.90;;;5.20;;
27979;SDS011;15315;50.836;4.430;2022-09-25T06:22:12;10.45;;;5.00;;
27979;SDS011;15315;50.836;4.430;2022-09-25T06:32:12;21.88;;;6.63;;
27979;SDS011;15315;50.836;4.430;2022-09-25T06:42:13;12.52;;;5.28;;
27979;SDS011;15315;50.836;4.430;2022-09-25T06:52:13;14.48;;;5.40;;
27979;SDS011;15315;50.836;4.430;2022-09-25T07:02:13;15.23;;;6.72;;
27979;SDS011;15315;50.836;4.430;2022-09-25T07:12:32;11.25;;;5.63;;
27979;SDS011;15315;50.836;4.430;2022-09-25T07:22:33;11.50;;;6.05;;
27979;SDS011;15315;50.836;4.430;2022-09-25T07:32:33;13.77;;;5.90;;
27979;SDS011;15315;50.836;4.430;2022-09-25T07:42:34;13.32;;;3.90;;
27979;SDS011;15315;50.836;4.430;2022-09-25T07:52:35;10.85;;;3.70;;
27979;SDS011;15315;50.836;4.430;2022-09-25T08:02:35;15.30;;;3.78;;
27979;SDS011;15315;50.836;4.430;2022-09-25T08:12:35;11.82;;;2.88;;
27979;SDS011;15315;50.836;4.430;2022-09-25T08:22:36;11.35;;;2.78;;
27979;SDS011;15315;50.836;4.430;2022-09-25T08:32:36;13.32;;;2.50;;
27979;SDS011;15315;50.836;4.430;2022-09-25T08:42:36;8.18;;;2.10;;
27979;SDS011;15315;50.836;4.430;2022-09-25T08:52:38;9.25;;;1.90;;
27979;SDS011;15315;50.836;4.430;2022-09-25T09:02:40;6.78;;;1.65;;
27979;SDS011;15315;50.836;4.430;2022-09-25T09:12:43;10.20;;;1.75;;
27979;SDS011;15315;50.836;4.430;2022-09-25T09:22:46;10.10;;;1.45;;
27979;SDS011;15315;50.836;4.430;2022-09-25T09:53:31;9.18;;;1.33;;
27979;SDS011;15315;50.836;4.430;2022-09-25T10:03:35;8.05;;;1.50;;
27979;SDS011;15315;50.836;4.430;2022-09-25T10:13:36;6.40;;;2.33;;
27979;SDS011;15315;50.836;4.430;2022-09-25T10:23:38;6.93;;;1.80;;
27979;SDS011;15315;50.836;4.430;2022-09-25T10:33:39;5.85;;;1.20;;
27979;SDS011;15315;50.836;4.430;2022-09-25T10:43:49;5.55;;;1.38;;
27979;SDS011;15315;50.836;4.430;2022-09-25T10:53:50;5.80;;;1.40;;
27979;SDS011;15315;50.836;4.430;2022-09-25T11:13:52;5.95;;;1.50;;
27979;SDS011;15315;50.836;4.430;2022-09-25T11:23:57;4.07;;;1.65;;
27979;SDS011;15315;50.836;4.430;2022-09-25T12:35:02;2.72;;;1.20;;
27979;SDS011;15315;50.836;4.430;2022-09-25T12:45:18;3.22;;;1.25;;
27979;SDS011;15315;50.836;4.430;2022-09-25T12:55:20;3.42;;;1.23;;
27979;SDS011;15315;50.836;4.430;2022-09-25T13:15:34;5.60;;;1.42;;
27979;SDS011;15315;50.836;4.430;2022-09-25T13:35:45;5.93;;;1.50;;
27979;SDS011;15315;50.836;4.430;2022-09-25T13:45:46;3.83;;;0.95;;
27979;SDS011;15315;50.836;4.430;2022-09-25T14:05:53;5.68;;;1.63;;
27979;SDS011;15315;50.836;4.430;2022-09-25T14:15:55;3.33;;;0.90;;
27979;SDS011;15315;50.836;4.430;2022-09-25T14:26:00;3.42;;;1.00;;
27979;SDS011;15315;50.836;4.430;2022-09-25T14:46:03;1.73;;;1.13;;
27979;SDS011;15315;50.836;4.430;2022-09-25T14:56:05;2.67;;;1.20;;
27979;SDS011;15315;50.836;4.430;2022-09-25T15:06:11;3.00;;;1.13;;
27979;SDS011;15315;50.836;4.430;2022-09-25T15:16:17;8.02;;;1.60;;
27979;SDS011;15315;50.836;4.430;2022-09-25T15:26:39;2.72;;;1.30;;
27979;SDS011;15315;50.836;4.430;2022-09-25T15:36:41;3.57;;;1.40;;
27979;SDS011;15315;50.836;4.430;2022-09-25T15:46:43;4.18;;;1.27;;
27979;SDS011;15315;50.836;4.430;2022-09-25T15:56:45;1.80;;;0.80;;
27979;SDS011;15315;50.836;4.430;2022-09-25T16:06:46;2.22;;;0.88;;
27979;SDS011;15315;50.836;4.430;2022-09-25T16:16:49;2.85;;;1.02;;
27979;SDS011;15315;50.836;4.430;2022-09-25T16:26:53;3.75;;;1.20;;
27979;SDS011;15315;50.836;4.430;2022-09-25T16:37:02;4.88;;;1.60;;
27979;SDS011;15315;50.836;4.430;2022-09-25T16:57:04;4.28;;;1.73;;
27979;SDS011;15315;50.836;4.430;2022-09-25T17:07:07;5.70;;;2.03;;
27979;SDS011;15315;50.836;4.430;2022-09-25T17:17:07;6.30;;;2.75;;
27979;SDS011;15315;50.836;4.430;2022-09-25T17:27:11;4.78;;;2.10;;
27979;SDS011;15315;50.836;4.430;2022-09-25T17:37:12;6.40;;;2.50;;
27979;SDS011;15315;50.836;4.430;2022-09-25T17:47:13;4.75;;;2.47;;
27979;SDS011;15315;50.836;4.430;2022-09-25T17:57:13;5.88;;;2.60;;
27979;SDS011;15315;50.836;4.430;2022-09-25T18:07:13;5.50;;;2.15;;
27979;SDS011;15315;50.836;4.430;2022-09-25T18:17:14;5.40;;;2.50;;
27979;SDS011;15315;50.836;4.430;2022-09-25T18:27:14;8.77;;;3.05;;
27979;SDS011;15315;50.836;4.430;2022-09-25T18:37:15;6.05;;;2.45;;
27979;SDS011;15315;50.836;4.430;2022-09-25T18:47:15;8.25;;;2.55;;
27979;SDS011;15315;50.836;4.430;2022-09-25T18:57:15;6.75;;;3.65;;
27979;SDS011;15315;50.836;4.430;2022-09-25T19:07:16;8.05;;;2.70;;
27979;SDS011;15315;50.836;4.430;2022-09-25T19:17:17;9.20;;;3.35;;
27979;SDS011;15315;50.836;4.430;2022-09-25T19:27:18;7.03;;;3.15;;
27979;SDS011;15315;50.836;4.430;2022-09-25T19:37:18;9.02;;;3.08;;
27979;SDS011;15315;50.836;4.430;2022-09-25T19:47:19;5.00;;;2.33;;
27979;SDS011;15315;50.836;4.430;2022-09-25T19:57:19;8.57;;;2.70;;
27979;SDS011;15315;50.836;4.430;2022-09-25T20:07:19;6.07;;;2.40;;
27979;SDS011;15315;50.836;4.430;2022-09-25T20:17:19;8.80;;;2.95;;
27979;SDS011;15315;50.836;4.430;2022-09-25T20:27:19;22.27;;;4.03;;
27979;SDS011;15315;50.836;4.430;2022-09-25T20:37:20;8.65;;;4.20;;
27979;SDS011;15315;50.836;4.430;2022-09-25T20:47:21;11.00;;;4.72;;
27979;SDS011;15315;50.836;4.430;2022-09-25T20:57:21;14.02;;;5.88;;
27979;SDS011;15315;50.836;4.430;2022-09-25T21:07:21;21.85;;;6.50;;
27979;SDS011;15315;50.836;4.430;2022-09-25T21:17:24;14.25;;;5.95;;
27979;SDS011;15315;50.836;4.430;2022-09-25T21:27:24;15.02;;;5.68;;
27979;SDS011;15315;50.836;4.430;2022-09-25T21:37:25;12.45;;;5.55;;
27979;SDS011;15315;50.836;4.430;2022-09-25T21:47:25;41.72;;;7.30;;
27979;SDS011;15315;50.836;4.430;2022-09-25T21:57:26;9.00;;;5.60;;
27979;SDS011;15315;50.836;4.430;2022-09-25T22:07:26;7.10;;;4.68;;
27979;SDS011;15315;50.836;4.430;2022-09-25T22:17:26;11.40;;;5.20;;
27979;SDS011;15315;50.836;4.430;2022-09-25T22:27:26;12.88;;;5.38;;
27979;SDS011;15315;50.836;4.430;2022-09-25T22:37:27;8.77;;;3.70;;
27979;SDS011;15315;50.836;4.430;2022-09-25T22:47:27;6.57;;;3.70;;
27979;SDS011;15315;50.836;4.430;2022-09-25T22:57:27;10.75;;;3.88;;
27979;SDS011;15315;50.836;4.430;2022-09-25T23:07:28;9.95;;;3.50;;
27979;SDS011;15315;50.836;4.430;2022-09-25T23:17:28;9.85;;;3.85;;
27979;SDS011;15315;50.836;4.430;2022-09-25T23:27:28;11.07;;;3.70;;
27979;SDS011;15315;50.836;4.430;2022-09-25T23:37:28;6.57;;;4.13;;
27979;SDS011;15315;50.836;4.430;2022-09-25T23:47:29;14.77;;;3.22;;
27979;SDS011;15315;50.836;4.430;2022-09-25T23:57:29;8.23;;;2.92;;
